EmailTwitter


Observations de surface / France / LFBO (07630)

Régions: Québec | Canada | États-Unis | Europe | France | UK | Ailleurs
Station
Affichage
Infos & localisation pour LFBO (07630) | Aide pour décoder les METARs

Observations prises le 2019-02-20 à 11H30 UTC à TOULOUSE/BLAGNAC, FR (LFBO)

Température: 14.0 Celsius

Point de rosée: 7.0 Celsius

Humidité relative: 63%

Vents: Sud-est à 20 km/h ou 11 noeuds.

Pression au niveau moyen de la mer: 102.40 kilopascals.

Observation METAR:

LFBO 201130Z AUTO 13011KT CAVOK 14/07 Q1024 NOSIG=